createdAt,value
2022-09-09T00:01:13.933Z,21.30
2022-09-09T00:03:53.366Z,21.40
2022-09-09T00:06:31.949Z,21.40
2022-09-09T00:09:14.663Z,21.60
2022-09-09T00:11:52.056Z,21.40
2022-09-09T00:14:33.960Z,21.50
2022-09-09T00:17:10.545Z,21.50
2022-09-09T00:19:53.130Z,21.70
2022-09-09T00:22:28.384Z,21.70
2022-09-09T00:25:15.198Z,21.90
2022-09-09T00:27:52.280Z,21.90
2022-09-09T00:30:27.853Z,22.00
2022-09-09T00:33:05.559Z,22.10
2022-09-09T00:35:42.022Z,22.10
2022-09-09T00:38:18.656Z,22.00
2022-09-09T00:40:59.181Z,22.20
2022-09-09T00:43:34.975Z,22.20
2022-09-09T00:46:40.840Z,22.00
2022-09-09T00:49:28.075Z,22.10
2022-09-09T00:52:12.805Z,22.10
2022-09-09T00:54:57.583Z,22.20
2022-09-09T00:57:35.815Z,22.30
2022-09-09T01:00:28.361Z,22.20
2022-09-09T01:03:33.621Z,22.40
2022-09-09T01:06:20.147Z,22.60
2022-09-09T01:09:15.944Z,22.90
2022-09-09T01:12:00.445Z,23.20
2022-09-09T01:14:47.315Z,23.60
2022-09-09T01:17:28.063Z,23.50
2022-09-09T01:20:19.208Z,23.90
2022-09-09T01:23:12.019Z,24.60
2022-09-09T01:26:15.414Z,25.30
2022-09-09T01:28:52.018Z,26.10
2022-09-09T01:31:32.385Z,25.90
2022-09-09T01:34:05.992Z,26.60
2022-09-09T01:36:44.916Z,27.10
2022-09-09T01:39:19.210Z,27.80
2022-09-09T01:41:59.549Z,27.90
2022-09-09T01:44:34.816Z,27.10
2022-09-09T01:47:08.759Z,27.10
2022-09-09T01:49:54.015Z,27.70
2022-09-09T01:52:32.233Z,27.40
2022-09-09T01:55:05.785Z,27.30
2022-09-09T01:57:53.910Z,27.20
2022-09-09T02:00:29.191Z,27.40
2022-09-09T02:03:10.430Z,27.90
2022-09-09T02:06:04.246Z,28.10
2022-09-09T02:08:47.377Z,28.70
2022-09-09T02:11:22.901Z,29.10
2022-09-09T02:14:22.908Z,29.30
2022-09-09T02:17:01.407Z,28.60
2022-09-09T02:23:02.350Z,27.50
2022-09-09T02:25:38.778Z,27.30
2022-09-09T02:28:26.539Z,27.60
2022-09-09T02:31:05.938Z,27.60
2022-09-09T02:33:52.971Z,27.10
2022-09-09T02:36:29.218Z,27.00
2022-09-09T02:39:02.963Z,27.00
2022-09-09T02:41:42.410Z,26.70
2022-09-09T02:44:19.372Z,26.40
2022-09-09T02:47:15.823Z,26.60
2022-09-09T02:50:00.687Z,26.90
2022-09-09T02:52:43.965Z,27.10
2022-09-09T02:55:23.579Z,27.10
2022-09-09T02:58:00.717Z,27.40
2022-09-09T03:00:35.955Z,27.50
2022-09-09T03:03:13.270Z,27.50
2022-09-09T03:05:47.021Z,27.70
2022-09-09T03:08:21.370Z,28.00
2022-09-09T03:10:56.932Z,28.20
2022-09-09T03:13:32.729Z,27.90
2022-09-09T03:16:06.563Z,27.50
2022-09-09T03:18:48.097Z,27.30
2022-09-09T03:21:22.267Z,26.80
2022-09-09T03:23:57.127Z,27.30
2022-09-09T03:26:30.366Z,27.70
2022-09-09T03:29:04.715Z,27.90
2022-09-09T03:31:39.099Z,27.90
2022-09-09T03:34:15.729Z,27.70
2022-09-09T03:36:51.162Z,27.40
2022-09-09T03:39:26.059Z,27.00
2022-09-09T03:42:02.299Z,27.20
2022-09-09T03:44:35.741Z,27.10
2022-09-09T03:50:16.933Z,27.40
2022-09-09T03:53:07.500Z,27.80
2022-09-09T03:55:41.310Z,28.00
2022-09-09T04:01:12.898Z,27.60
2022-09-09T04:04:05.653Z,27.20
2022-09-09T04:06:43.291Z,27.70
2022-09-09T04:09:17.034Z,28.10
2022-09-09T04:11:51.590Z,27.90
2022-09-09T04:14:25.258Z,28.00
2022-09-09T04:16:59.464Z,27.60
2022-09-09T04:19:33.543Z,27.40
2022-09-09T04:22:10.351Z,27.30
2022-09-09T04:24:48.576Z,27.30
2022-09-09T04:27:24.786Z,27.20
2022-09-09T04:29:58.798Z,26.70
2022-09-09T04:32:38.971Z,26.80
2022-09-09T04:35:13.178Z,26.80
2022-09-09T04:37:50.090Z,26.70
2022-09-09T04:40:24.300Z,26.80
2022-09-09T04:42:58.183Z,26.80
2022-09-09T04:45:34.911Z,27.10
2022-09-09T04:48:09.215Z,26.90
2022-09-09T04:50:43.095Z,26.80
2022-09-09T04:53:21.012Z,26.70
2022-09-09T04:55:54.446Z,26.70
2022-09-09T04:58:28.698Z,26.60
2022-09-09T05:01:09.509Z,26.70
2022-09-09T05:03:44.988Z,26.70
2022-09-09T05:06:20.892Z,26.70
2022-09-09T05:08:58.739Z,27.00
2022-09-09T05:11:38.793Z,27.50
2022-09-09T05:14:35.757Z,27.10
2022-09-09T05:17:09.324Z,26.90
2022-09-09T05:19:45.544Z,26.40
2022-09-09T05:22:25.232Z,26.60
2022-09-09T05:25:03.661Z,26.60
2022-09-09T05:27:39.336Z,26.90
2022-09-09T05:30:25.768Z,26.40
2022-09-09T05:33:03.082Z,26.80
2022-09-09T05:35:37.621Z,27.10
2022-09-09T05:38:11.126Z,27.20
2022-09-09T05:40:52.917Z,27.00
2022-09-09T05:43:35.654Z,26.80
2022-09-09T05:46:12.266Z,26.70
2022-09-09T05:48:48.885Z,26.80
2022-09-09T05:51:23.915Z,27.00
2022-09-09T05:54:00.923Z,27.00
2022-09-09T05:56:39.960Z,26.90
2022-09-09T05:59:15.176Z,27.00
2022-09-09T06:01:49.663Z,27.10
2022-09-09T06:04:31.076Z,26.90
2022-09-09T06:07:13.542Z,27.00
2022-09-09T06:09:47.581Z,26.80
2022-09-09T06:12:22.974Z,26.50
2022-09-09T06:14:56.784Z,26.40
2022-09-09T06:17:30.969Z,26.50
2022-09-09T06:20:29.827Z,26.50
2022-09-09T06:23:05.896Z,27.00
2022-09-09T06:25:59.155Z,27.30
2022-09-09T06:28:34.712Z,27.20
2022-09-09T06:31:09.959Z,27.30
2022-09-09T06:33:45.408Z,27.10
2022-09-09T06:36:21.951Z,26.90
2022-09-09T06:39:03.269Z,27.00
2022-09-09T06:41:44.844Z,27.00
2022-09-09T06:44:43.459Z,27.40
2022-09-09T06:47:21.964Z,27.10
2022-09-09T06:49:56.079Z,27.20
2022-09-09T06:52:30.983Z,27.20
2022-09-09T06:55:27.890Z,27.40
2022-09-09T06:58:02.867Z,27.40
2022-09-09T07:00:40.056Z,27.20
2022-09-09T07:03:14.978Z,27.30
2022-09-09T07:05:48.573Z,27.50
2022-09-09T07:11:34.290Z,28.00
2022-09-09T07:14:07.655Z,28.00
2022-09-09T07:17:07.170Z,28.00
2022-09-09T07:19:45.655Z,27.80
2022-09-09T07:22:30.251Z,27.90
2022-09-09T07:25:05.701Z,27.60
2022-09-09T07:27:39.762Z,27.40
2022-09-09T07:30:20.942Z,27.20
2022-09-09T07:35:45.694Z,27.30
2022-09-09T07:38:19.953Z,27.30
2022-09-09T07:40:53.844Z,27.10
2022-09-09T07:43:32.376Z,27.30
2022-09-09T07:46:06.164Z,27.60
2022-09-09T07:48:41.581Z,28.00
2022-09-09T07:51:20.440Z,27.80
2022-09-09T07:53:57.854Z,27.60
2022-09-09T07:56:33.679Z,27.70
2022-09-09T07:59:08.342Z,27.80
2022-09-09T08:01:45.544Z,28.00
2022-09-09T08:07:27.519Z,27.90
2022-09-09T08:10:01.782Z,27.90
2022-09-09T08:13:07.655Z,27.80
2022-09-09T08:15:42.208Z,28.00
2022-09-09T08:18:16.007Z,28.30
2022-09-09T08:20:55.969Z,28.20
2022-09-09T08:23:30.322Z,27.80
2022-09-09T08:26:11.989Z,27.80
2022-09-09T08:28:45.370Z,27.60
2022-09-09T08:31:21.879Z,27.60
2022-09-09T08:34:00.747Z,27.60
2022-09-09T08:36:39.186Z,27.50
2022-09-09T08:39:13.986Z,27.50
2022-09-09T08:42:10.812Z,27.50
2022-09-09T08:45:02.625Z,27.30
2022-09-09T08:48:01.178Z,27.40
2022-09-09T08:50:40.668Z,27.40
2022-09-09T08:53:32.397Z,27.20
2022-09-09T08:56:08.609Z,27.10
2022-09-09T08:58:54.893Z,27.10
2022-09-09T09:02:33.330Z,27.30
2022-09-09T09:05:19.311Z,27.00
2022-09-09T09:08:11.595Z,26.90
2022-09-09T09:10:53.135Z,27.20
2022-09-09T09:13:43.673Z,27.50
2022-09-09T09:16:28.411Z,27.30
2022-09-09T09:19:06.070Z,27.50
2022-09-09T09:21:46.489Z,27.50
2022-09-09T09:24:24.168Z,27.30
2022-09-09T09:27:14.279Z,27.30
2022-09-09T09:30:25.185Z,27.10
2022-09-09T09:33:06.469Z,26.90
2022-09-09T09:35:43.281Z,26.80
2022-09-09T09:41:13.483Z,26.60
2022-09-09T09:43:59.838Z,26.70
2022-09-09T09:46:35.482Z,26.80
2022-09-09T09:49:20.646Z,26.80
2022-09-09T09:51:56.187Z,26.90
2022-09-09T09:54:33.870Z,26.60
2022-09-09T09:57:31.881Z,26.50
2022-09-09T10:00:20.989Z,26.40
2022-09-09T10:03:04.224Z,26.40
2022-09-09T10:05:50.555Z,26.40
2022-09-09T10:08:25.761Z,26.30
2022-09-09T10:11:30.037Z,26.30
2022-09-09T10:14:10.486Z,26.30
2022-09-09T10:16:57.830Z,26.20
2022-09-09T10:19:38.511Z,26.10
2022-09-09T10:22:30.720Z,26.10
2022-09-09T10:25:22.792Z,26.10
2022-09-09T10:28:14.978Z,26.00
2022-09-09T10:30:57.443Z,26.00
2022-09-09T10:33:41.187Z,26.00
2022-09-09T10:36:21.087Z,25.90
2022-09-09T10:39:08.844Z,25.80
2022-09-09T10:41:57.304Z,25.70
2022-09-09T10:44:54.972Z,25.60
2022-09-09T10:47:51.360Z,25.70
2022-09-09T10:51:04.915Z,25.60
2022-09-09T10:56:57.341Z,25.50
2022-09-09T10:59:41.289Z,25.30
2022-09-09T11:02:24.493Z,25.40
2022-09-09T11:05:26.158Z,25.40
2022-09-09T11:08:35.760Z,25.40
2022-09-09T11:11:14.932Z,25.40
2022-09-09T11:13:54.131Z,25.40
2022-09-09T11:16:34.597Z,25.30
2022-09-09T11:19:16.192Z,25.30
2022-09-09T11:22:08.188Z,25.30
2022-09-09T11:24:46.851Z,25.10
2022-09-09T11:30:55.659Z,25.10
2022-09-09T11:34:01.321Z,25.10
2022-09-09T11:37:00.834Z,25.00
2022-09-09T11:40:06.935Z,24.90
2022-09-09T11:42:41.002Z,24.90
2022-09-09T11:45:27.743Z,24.90
2022-09-09T11:48:04.018Z,24.70
2022-09-09T11:50:39.944Z,24.80
2022-09-09T11:53:27.541Z,24.70
2022-09-09T11:56:11.365Z,24.80
2022-09-09T11:58:51.715Z,24.70
2022-09-09T12:04:40.834Z,24.50
2022-09-09T12:07:36.715Z,24.50
2022-09-09T12:10:29.206Z,24.50
2022-09-09T12:13:19.572Z,24.60
2022-09-09T12:15:57.367Z,24.50
2022-09-09T12:18:39.709Z,24.50
2022-09-09T12:21:23.015Z,24.50
2022-09-09T12:24:03.140Z,24.40
2022-09-09T12:26:40.125Z,24.40
2022-09-09T12:29:27.169Z,24.30
2022-09-09T12:32:05.733Z,24.30
2022-09-09T12:34:44.814Z,24.30
2022-09-09T12:37:30.970Z,24.20
2022-09-09T12:40:06.771Z,24.30
2022-09-09T12:42:46.165Z,24.30
2022-09-09T12:45:26.853Z,24.20
2022-09-09T12:48:03.301Z,24.20
2022-09-09T12:53:31.019Z,24.20
2022-09-09T12:56:06.291Z,24.30
2022-09-09T12:58:42.084Z,24.20
2022-09-09T13:01:48.759Z,24.10
2022-09-09T13:04:26.404Z,24.10
2022-09-09T13:07:12.571Z,24.00
2022-09-09T13:09:50.601Z,23.90
2022-09-09T13:12:28.708Z,24.00
2022-09-09T13:15:02.636Z,24.00
2022-09-09T13:17:38.898Z,24.00
2022-09-09T13:20:21.161Z,24.00
2022-09-09T13:22:57.092Z,24.00
2022-09-09T13:25:33.226Z,23.80
2022-09-09T13:28:07.575Z,23.80
2022-09-09T13:30:45.294Z,23.80
2022-09-09T13:33:28.669Z,23.80
2022-09-09T13:36:03.632Z,23.80
2022-09-09T13:38:40.638Z,23.80
2022-09-09T13:41:40.154Z,23.70
2022-09-09T13:44:27.994Z,23.80
2022-09-09T13:47:10.831Z,23.80
2022-09-09T13:49:47.938Z,23.80
2022-09-09T13:52:25.405Z,23.70
2022-09-09T14:00:46.703Z,23.50
2022-09-09T14:03:21.207Z,23.50
2022-09-09T14:06:02.529Z,23.40
2022-09-09T14:08:39.491Z,23.40
2022-09-09T14:11:21.324Z,23.30
2022-09-09T14:14:03.623Z,23.50
2022-09-09T14:16:42.286Z,23.30
2022-09-09T14:19:16.242Z,23.40
2022-09-09T14:21:52.809Z,23.30
2022-09-09T14:24:27.534Z,23.30
2022-09-09T14:27:01.599Z,23.40
2022-09-09T14:29:37.315Z,23.40
2022-09-09T14:35:10.268Z,23.20
2022-09-09T14:37:49.069Z,23.20
2022-09-09T14:40:23.380Z,23.10
2022-09-09T14:43:00.099Z,23.20
2022-09-09T14:45:34.521Z,23.10
2022-09-09T14:48:09.254Z,23.10
2022-09-09T14:50:42.720Z,23.10
2022-09-09T14:53:20.214Z,23.00
2022-09-09T14:55:53.535Z,23.00
2022-09-09T14:58:31.855Z,22.90
2022-09-09T15:01:10.173Z,22.90
2022-09-09T15:03:44.484Z,23.00
2022-09-09T15:06:19.607Z,23.00
2022-09-09T15:09:03.197Z,23.00
2022-09-09T15:11:40.222Z,22.90
2022-09-09T15:14:18.616Z,22.80
2022-09-09T15:16:54.550Z,22.80
2022-09-09T15:19:28.421Z,22.90
2022-09-09T15:22:02.271Z,22.80
2022-09-09T15:24:39.306Z,22.70
2022-09-09T15:27:17.046Z,22.80
2022-09-09T15:29:56.070Z,22.90
2022-09-09T15:32:38.922Z,22.80
2022-09-09T15:35:13.820Z,22.80
2022-09-09T15:38:07.809Z,22.70
2022-09-09T15:40:45.868Z,22.70
2022-09-09T15:43:21.315Z,22.70
2022-09-09T15:46:02.436Z,22.60
2022-09-09T15:51:40.105Z,22.60
2022-09-09T15:54:13.102Z,22.60
2022-09-09T15:56:50.830Z,22.50
2022-09-09T15:59:25.195Z,22.50
2022-09-09T16:01:59.423Z,22.60
2022-09-09T16:04:34.632Z,22.60
2022-09-09T16:07:21.479Z,22.70
2022-09-09T16:09:55.806Z,22.80
2022-09-09T16:12:31.561Z,22.80
2022-09-09T16:15:05.973Z,22.80
2022-09-09T16:17:40.228Z,22.70
2022-09-09T16:20:18.033Z,22.70
2022-09-09T16:22:56.425Z,22.70
2022-09-09T16:25:30.726Z,22.60
2022-09-09T16:28:06.702Z,22.70
2022-09-09T16:30:43.476Z,22.70
2022-09-09T16:33:28.137Z,22.60
2022-09-09T16:36:02.166Z,22.60
2022-09-09T16:38:40.561Z,22.60
2022-09-09T16:41:16.143Z,22.50
2022-09-09T16:43:53.443Z,22.50
2022-09-09T16:46:37.632Z,22.40
2022-09-09T16:49:15.325Z,22.40
2022-09-09T16:51:50.505Z,22.30
2022-09-09T16:54:45.971Z,22.30
2022-09-09T16:57:19.644Z,22.30
2022-09-09T16:59:56.367Z,22.30
2022-09-09T17:02:31.080Z,22.40
2022-09-09T17:05:12.364Z,22.40
2022-09-09T17:08:03.266Z,22.40
2022-09-09T17:10:42.865Z,22.30
2022-09-09T17:13:17.686Z,22.30
2022-09-09T17:16:02.732Z,22.30
2022-09-09T17:21:33.763Z,22.40
2022-09-09T17:24:07.400Z,22.30
2022-09-09T17:26:47.593Z,22.30
2022-09-09T17:29:21.740Z,22.40
2022-09-09T17:31:57.272Z,22.20
2022-09-09T17:34:30.593Z,22.20
2022-09-09T17:37:09.867Z,22.20
2022-09-09T17:39:44.280Z,22.20
2022-09-09T17:42:18.238Z,22.10
2022-09-09T17:44:51.912Z,22.10
2022-09-09T17:47:27.998Z,22.10
2022-09-09T17:50:01.105Z,22.10
2022-09-09T17:52:35.102Z,22.10
2022-09-09T17:55:11.635Z,22.20
2022-09-09T17:57:45.603Z,22.20
2022-09-09T18:00:21.070Z,22.20
2022-09-09T18:03:06.088Z,22.20
2022-09-09T18:05:40.060Z,22.10
2022-09-09T18:08:13.546Z,22.10
2022-09-09T18:10:47.127Z,22.10
2022-09-09T18:13:20.765Z,22.10
2022-09-09T18:16:05.550Z,22.10
2022-09-09T18:18:41.472Z,22.00
2022-09-09T18:21:15.497Z,22.10
2022-09-09T18:23:50.623Z,22.00
2022-09-09T18:26:26.180Z,22.00
2022-09-09T18:29:02.805Z,22.00
2022-09-09T18:31:39.096Z,22.00
2022-09-09T18:34:15.855Z,21.90
2022-09-09T18:36:50.817Z,21.80
2022-09-09T18:39:26.376Z,21.90
2022-09-09T18:44:59.514Z,22.00
2022-09-09T18:47:33.239Z,22.00
2022-09-09T18:50:10.219Z,22.00
2022-09-09T18:52:45.543Z,22.00
2022-09-09T18:55:19.092Z,21.90
2022-09-09T18:57:52.032Z,21.90
2022-09-09T19:00:27.355Z,21.90
2022-09-09T19:03:01.564Z,21.90
2022-09-09T19:05:40.645Z,21.90
2022-09-09T19:08:13.642Z,21.80
2022-09-09T19:10:48.285Z,21.80
2022-09-09T19:13:21.973Z,21.70
2022-09-09T19:15:56.932Z,21.80
2022-09-09T19:18:30.249Z,21.80
2022-09-09T19:21:14.775Z,21.80
2022-09-09T19:24:05.580Z,21.80
2022-09-09T19:26:41.649Z,21.80
2022-09-09T19:29:18.770Z,21.90
2022-09-09T19:34:47.835Z,21.90
2022-09-09T19:37:23.798Z,21.80
2022-09-09T19:39:56.873Z,21.90
2022-09-09T19:42:31.632Z,21.90
2022-09-09T19:45:04.794Z,21.80
2022-09-09T19:47:41.667Z,21.80
2022-09-09T19:50:23.166Z,21.70
2022-09-09T19:53:00.177Z,21.70
2022-09-09T19:55:34.393Z,21.70
2022-09-09T19:58:08.640Z,21.80
2022-09-09T20:00:42.668Z,21.80
2022-09-09T20:03:19.567Z,21.70
2022-09-09T20:05:54.871Z,21.70
2022-09-09T20:08:30.555Z,21.70
2022-09-09T20:11:04.614Z,21.70
2022-09-09T20:13:40.328Z,21.70
2022-09-09T20:16:15.445Z,21.80
2022-09-09T20:18:51.713Z,21.70
2022-09-09T20:21:26.606Z,21.70
2022-09-09T20:24:02.888Z,21.70
2022-09-09T20:26:37.808Z,21.60
2022-09-09T20:29:16.210Z,21.60
2022-09-09T20:31:50.030Z,21.60
2022-09-09T20:37:13.148Z,21.70
2022-09-09T20:39:49.221Z,21.70
2022-09-09T20:42:23.074Z,21.70
2022-09-09T20:44:56.418Z,21.60
2022-09-09T20:47:30.105Z,21.70
2022-09-09T20:50:03.991Z,21.60
2022-09-09T20:52:37.160Z,21.60
2022-09-09T20:55:12.801Z,21.50
2022-09-09T20:57:46.155Z,21.50
2022-09-09T21:03:06.739Z,21.60
2022-09-09T21:05:40.196Z,21.60
2022-09-09T21:08:23.225Z,21.60
2022-09-09T21:11:01.027Z,21.60
2022-09-09T21:13:35.591Z,21.60
2022-09-09T21:16:10.523Z,21.70
2022-09-09T21:18:45.506Z,21.70
2022-09-09T21:21:20.376Z,21.70
2022-09-09T21:23:54.317Z,21.70
2022-09-09T21:26:29.918Z,21.70
2022-09-09T21:29:03.707Z,21.60
2022-09-09T21:31:37.564Z,21.60
2022-09-09T21:34:11.484Z,21.60
2022-09-09T21:36:45.116Z,21.60
2022-09-09T21:39:18.844Z,21.60
2022-09-09T21:41:54.691Z,21.60
2022-09-09T21:44:28.344Z,21.70
2022-09-09T21:47:01.659Z,21.70
2022-09-09T21:49:35.703Z,21.60
2022-09-09T21:52:09.425Z,21.70
2022-09-09T21:54:45.096Z,21.60
2022-09-09T21:57:24.351Z,21.60
2022-09-09T21:59:58.983Z,21.70
2022-09-09T22:02:34.107Z,21.60
2022-09-09T22:05:08.304Z,21.60
2022-09-09T22:10:29.110Z,21.50
2022-09-09T22:13:04.287Z,21.50
2022-09-09T22:15:37.992Z,21.40
2022-09-09T22:18:12.521Z,21.40
2022-09-09T22:20:46.923Z,21.50
2022-09-09T22:23:22.868Z,21.40
2022-09-09T22:25:56.774Z,21.50
2022-09-09T22:28:33.135Z,21.50
2022-09-09T22:31:07.067Z,21.50
2022-09-09T22:33:41.956Z,21.50
2022-09-09T22:36:15.510Z,21.40
2022-09-09T22:38:53.784Z,21.50
2022-09-09T22:41:27.903Z,21.50
2022-09-09T22:44:03.873Z,21.50
2022-09-09T22:46:37.778Z,21.50
2022-09-09T22:49:12.601Z,21.50
2022-09-09T22:51:46.555Z,21.50
2022-09-09T22:54:23.292Z,21.50
2022-09-09T22:56:57.079Z,21.40
2022-09-09T22:59:32.579Z,21.50
2022-09-09T23:02:05.553Z,21.50
2022-09-09T23:04:40.365Z,21.50
2022-09-09T23:07:13.924Z,21.60
2022-09-09T23:09:47.485Z,21.70
2022-09-09T23:12:22.633Z,21.80
2022-09-09T23:14:58.779Z,21.80
2022-09-09T23:20:25.588Z,22.00
2022-09-09T23:23:02.177Z,22.30
2022-09-09T23:25:36.115Z,22.30
2022-09-09T23:28:09.531Z,22.10
2022-09-09T23:33:38.121Z,22.30
2022-09-09T23:36:16.506Z,22.30
2022-09-09T23:38:50.361Z,22.20
2022-09-09T23:41:23.868Z,22.20
2022-09-09T23:43:58.264Z,22.10
2022-09-09T23:46:35.089Z,22.40
2022-09-09T23:49:10.794Z,22.50
2022-09-09T23:51:44.556Z,22.80
2022-09-09T23:54:17.737Z,23.00
2022-09-09T23:56:51.017Z,23.20
2022-09-09T23:59:24.345Z,23.50
